sensor_id;sensor_type;location;lat;lon;timestamp;P1;P2;P0
50041;PMS7003;44598;51.606;5.912;2024-01-25T00:00:42;11.05;5.79;2.19
50041;PMS7003;44598;51.606;5.912;2024-01-25T00:14:02;6.73;5.46;2.3
50041;PMS7003;44598;51.606;5.912;2024-01-25T00:40:41;8.05;5.13;2.08
50041;PMS7003;44598;51.606;5.912;2024-01-25T00:54:01;3.48;4.8;2.19
50041;PMS7003;44598;51.606;5.912;2024-01-25T01:20:40;4.09;4.59;2.08
50041;PMS7003;44598;51.606;5.912;2024-01-25T01:47:19;4.69;5.13;2.19
50041;PMS7003;44598;51.606;5.912;2024-01-25T02:00:39;5.53;4.59;2.3
50041;PMS7003;44598;51.606;5.912;2024-01-25T02:13:59;6.37;4.59;2.19
50041;PMS7003;44598;51.606;5.912;2024-01-25T02:27:18;8.17;4.8;1.97
50041;PMS7003;44598;51.606;5.912;2024-01-25T02:53:58;10.09;5.13;2.3
50041;PMS7003;44598;51.606;5.912;2024-01-25T03:07:17;8.41;5.13;2.08
50041;PMS7003;44598;51.606;5.912;2024-01-25T03:20:37;5.29;5.9;2.41
50041;PMS7003;44598;51.606;5.912;2024-01-25T03:33:56;6.85;5.35;2.19
50041;PMS7003;44598;51.606;5.912;2024-01-25T03:47:16;9.61;6.33;2.62
50041;PMS7003;44598;51.606;5.912;2024-01-25T04:13:55;11.89;5.79;2.52
50041;PMS7003;44598;51.606;5.912;2024-01-25T04:40:35;4.69;5.24;2.19
50041;PMS7003;44598;51.606;5.912;2024-01-25T04:53:54;8.53;5.46;2.19
50041;PMS7003;44598;51.606;5.912;2024-01-25T05:07:14;8.77;5.9;2.62
50041;PMS7003;44598;51.606;5.912;2024-01-25T05:20:33;5.89;5.79;2.41
50041;PMS7003;44598;51.606;5.912;2024-01-25T05:33:53;7.93;7.09;2.52
50041;PMS7003;44598;51.606;5.912;2024-01-25T05:47:13;6.85;6.44;2.62
50041;PMS7003;44598;51.606;5.912;2024-01-25T06:00:32;5.17;5.24;2.3
50041;PMS7003;44598;51.606;5.912;2024-01-25T06:40:31;8.17;7.86;2.95
50041;PMS7003;44598;51.606;5.912;2024-01-25T06:53:51;9.37;6.66;3.06
50041;PMS7003;44598;51.606;5.912;2024-01-25T07:07:11;7.69;6.66;2.95
50041;PMS7003;44598;51.606;5.912;2024-01-25T07:20:30;11.41;7.64;3.61
50041;PMS7003;44598;51.606;5.912;2024-01-25T07:33:50;9.37;7.09;3.5
50041;PMS7003;44598;51.606;5.912;2024-01-25T07:47:09;9.49;7.97;3.5
50041;PMS7003;44598;51.606;5.912;2024-01-25T08:27:08;11.41;10.04;5.02
50041;PMS7003;44598;51.606;5.912;2024-01-25T08:53:48;16.69;12.0;5.79
50041;PMS7003;44598;51.606;5.912;2024-01-25T09:07:07;13.09;11.56;5.68
50041;PMS7003;44598;51.606;5.912;2024-01-25T09:20:27;15.61;12.98;6.44
50041;PMS7003;44598;51.606;5.912;2024-01-25T10:00:26;20.17;16.69;8.08
50041;PMS7003;44598;51.606;5.912;2024-01-25T10:13:46;18.49;17.12;8.95
50041;PMS7003;44598;51.606;5.912;2024-01-25T10:27:05;19.93;17.89;9.93
50041;PMS7003;44598;51.606;5.912;2024-01-25T10:40:25;20.41;18.32;9.17
50041;PMS7003;44598;51.606;5.912;2024-01-25T10:53:45;21.01;18.87;9.6
50041;PMS7003;44598;51.606;5.912;2024-01-25T11:07:04;20.89;17.89;9.06
50041;PMS7003;44598;51.606;5.912;2024-01-25T11:20:24;22.45;19.74;9.49
50041;PMS7003;44598;51.606;5.912;2024-01-25T11:33:44;22.21;18.65;9.49
50041;PMS7003;44598;51.606;5.912;2024-01-25T11:47:03;25.21;21.7;11.02
50041;PMS7003;44598;51.606;5.912;2024-01-25T12:00:23;24.97;21.37;10.69
50041;PMS7003;44598;51.606;5.912;2024-01-25T12:27:02;28.09;22.57;11.13
50041;PMS7003;44598;51.606;5.912;2024-01-25T12:40:22;26.53;21.7;10.91
50041;PMS7003;44598;51.606;5.912;2024-01-25T12:53:42;25.45;21.59;10.8
50041;PMS7003;44598;51.606;5.912;2024-01-25T13:07:01;23.17;19.19;9.38
50041;PMS7003;44598;51.606;5.912;2024-01-25T13:20:21;23.41;19.52;9.93
50041;PMS7003;44598;51.606;5.912;2024-01-25T13:47:00;22.93;18.76;9.6
50041;PMS7003;44598;51.606;5.912;2024-01-25T14:00:20;24.49;19.41;10.15
50041;PMS7003;44598;51.606;5.912;2024-01-25T14:13:39;19.69;18.1;9.17
50041;PMS7003;44598;51.606;5.912;2024-01-25T14:26:59;18.85;17.89;8.84
50041;PMS7003;44598;51.606;5.912;2024-01-25T14:40:19;23.41;18.54;9.17
50041;PMS7003;44598;51.606;5.912;2024-01-25T15:06:58;20.77;18.43;8.4
50041;PMS7003;44598;51.606;5.912;2024-01-25T15:20:18;22.93;18.98;8.84
50041;PMS7003;44598;51.606;5.912;2024-01-25T15:33:37;19.45;17.89;8.51
50041;PMS7003;44598;51.606;5.912;2024-01-25T15:46:57;21.25;18.65;8.84
50041;PMS7003;44598;51.606;5.912;2024-01-25T16:00:17;21.73;17.89;8.08
50041;PMS7003;44598;51.606;5.912;2024-01-25T16:13:36;19.45;18.21;8.18
50041;PMS7003;44598;51.606;5.912;2024-01-25T16:26:56;20.29;17.23;8.18
50041;PMS7003;44598;51.606;5.912;2024-01-25T17:20:15;12.61;13.31;6.66
50041;PMS7003;44598;51.606;5.912;2024-01-25T17:33:34;12.49;13.74;7.53
50041;PMS7003;44598;51.606;5.912;2024-01-25T17:46:54;12.97;15.05;7.86
50041;PMS7003;44598;51.606;5.912;2024-01-25T18:00:13;16.81;17.78;9.49
50041;PMS7003;44598;51.606;5.912;2024-01-25T18:40:12;21.97;20.39;10.8
50041;PMS7003;44598;51.606;5.912;2024-01-25T19:06:52;26.29;22.14;11.67
50041;PMS7003;44598;51.606;5.912;2024-01-25T19:20:11;25.33;22.25;12.22
50041;PMS7003;44598;51.606;5.912;2024-01-25T19:46:50;25.33;21.81;12.22
50041;PMS7003;44598;51.606;5.912;2024-01-25T20:00:10;24.25;21.81;12.0
50041;PMS7003;44598;51.606;5.912;2024-01-25T20:13:30;23.17;21.37;11.89
50041;PMS7003;44598;51.606;5.912;2024-01-25T20:26:49;23.29;21.37;12.0
50041;PMS7003;44598;51.606;5.912;2024-01-25T20:53:29;21.25;20.07;11.24
50041;PMS7003;44598;51.606;5.912;2024-01-25T21:06:48;22.09;20.28;10.91
50041;PMS7003;44598;51.606;5.912;2024-01-25T21:20:08;23.41;21.26;11.56
50041;PMS7003;44598;51.606;5.912;2024-01-25T22:00:07;21.61;20.28;11.56
50041;PMS7003;44598;51.606;5.912;2024-01-25T22:40:06;22.57;20.28;11.56
50041;PMS7003;44598;51.606;5.912;2024-01-25T22:53:26;21.25;20.07;12.0
50041;PMS7003;44598;51.606;5.912;2024-01-25T23:06:45;24.13;22.03;12.44
50041;PMS7003;44598;51.606;5.912;2024-01-25T23:20:05;24.61;22.14;12.76
50041;PMS7003;44598;51.606;5.912;2024-01-25T23:33:25;24.25;21.81;12.98
